Time;durP1;ratioP1;P1;durP2;ratioP2;P2;SDS_P1;SDS_P2;PMS_P1;PMS_P2;Temp;Humidity;BMP_temperature;BMP_pressure;BME280_temperature;BME280_humidity;BME280_pressure;Samples;Min_cycle;Max_cycle;Signal;HPM_P1;HPM_P2
2023/04/22 05:57:50;;;;;;;2.37;2.17;;;;;;;13.30;59.14;94958.31;6152851;23;20590;-86
2023/04/22 06:00:29;;;;;;;1.80;1.70;;;;;;;13.30;58.12;94958.31;6154519;23;20263;-84
2023/04/22 06:02:59;;;;;;;2.00;1.80;;;;;;;13.22;58.08;94963.63;6104452;23;20147;-85
2023/04/22 06:05:27;;;;;;;2.00;1.80;;;;;;;13.24;57.79;94967.66;6100981;23;20179;-84
2023/04/22 06:08:21;;;;;;;2.20;1.47;;;;;;;13.35;57.03;94976.06;6128141;23;20643;-83
2023/04/22 06:10:57;;;;;;;2.50;1.70;;;;;;;13.39;56.20;94977.31;6133260;23;20466;-82
2023/04/22 06:13:34;;;;;;;2.60;1.90;;;;;;;13.57;57.28;94983.00;6107159;23;20146;-85
2023/04/22 06:16:13;;;;;;;2.20;1.57;;;;;;;13.35;56.56;94981.28;6103942;23;20155;-84
2023/04/22 06:18:53;;;;;;;1.97;1.80;;;;;;;13.59;56.27;94981.00;6105614;23;20175;-84
2023/04/22 06:21:19;;;;;;;2.03;1.67;;;;;;;13.58;56.26;94987.22;6107448;23;20158;-84
2023/04/22 06:23:47;;;;;;;1.83;1.73;;;;;;;13.52;55.82;94982.72;6105766;23;20509;-83
2023/04/22 06:26:15;;;;;;;3.13;1.77;;;;;;;13.62;55.54;94988.50;6105156;23;20163;-84
2023/04/22 06:28:45;;;;;;;1.73;1.63;;;;;;;13.52;55.19;94986.16;6129088;23;20194;-82
2023/04/22 06:31:11;;;;;;;3.30;1.50;;;;;;;13.55;54.91;94987.59;6131091;23;20193;-84
2023/04/22 06:33:36;;;;;;;1.63;1.43;;;;;;;13.78;54.52;94988.31;6101630;23;20541;-78
2023/04/22 06:36:03;;;;;;;2.10;1.80;;;;;;;14.06;54.29;94995.47;6153219;23;20217;-81
2023/04/22 06:38:29;;;;;;;1.63;1.53;;;;;;;14.07;53.66;94986.66;6153422;23;20179;-81
2023/04/22 06:40:54;;;;;;;2.37;1.50;;;;;;;13.96;53.66;94992.31;6128282;23;20616;-81
2023/04/22 06:43:19;;;;;;;1.70;1.60;;;;;;;14.14;53.07;94990.97;6126802;23;20456;-82
2023/04/22 06:45:45;;;;;;;2.23;1.63;;;;;;;14.33;52.79;94986.97;6127640;23;20613;-81
2023/04/22 06:48:10;;;;;;;2.63;1.50;;;;;;;14.72;53.27;94986.59;6128499;23;20227;-82
2023/04/22 06:50:35;;;;;;;2.20;1.27;;;;;;;15.33;51.19;94969.59;6128284;23;20210;-82
2023/04/22 06:53:00;;;;;;;2.33;1.83;;;;;;;14.96;50.91;94974.94;6129473;23;20482;-80
2023/04/22 06:55:26;;;;;;;2.70;1.60;;;;;;;14.90;51.89;94972.25;6127830;23;20198;-81
2023/04/22 06:57:51;;;;;;;2.73;1.77;;;;;;;15.08;50.52;94974.44;6103588;23;20281;-83
2023/04/22 07:00:17;;;;;;;1.40;1.30;;;;;;;14.76;52.26;94970.56;6105043;23;20195;-81
2023/04/22 07:02:42;;;;;;;2.00;1.83;;;;;;;14.84;51.67;94968.63;6155129;23;20152;-83
2023/04/22 07:05:07;;;;;;;3.43;1.33;;;;;;;14.69;51.88;94963.44;6133081;23;20202;-83
2023/04/22 07:07:33;;;;;;;1.50;1.40;;;;;;;14.98;51.25;94966.91;6135518;23;20545;-84
2023/04/22 07:09:58;;;;;;;2.73;1.83;;;;;;;14.87;51.69;94963.00;6109676;23;20178;-81
2023/04/22 07:12:24;;;;;;;2.50;1.60;;;;;;;15.33;49.95;94961.75;6139652;23;20163;-83
2023/04/22 07:30:34;;;;;;;1.87;1.70;;;;;;;14.94;51.11;94983.97;6157398;23;20156;-85
2023/04/22 07:32:59;;;;;;;3.20;1.50;;;;;;;15.32;51.00;94970.59;6127013;23;20598;-82
2023/04/22 07:35:34;;;;;;;1.53;1.43;;;;;;;15.43;51.13;94975.28;6102321;23;20163;-83
2023/04/22 07:51:46;;;;;;;2.25;1.90;;;;;;;16.29;47.16;94994.09;6027361;23;20200;-81
2023/04/22 08:38:15;;;;;;;1.83;1.23;;;;;;;18.95;40.54;94956.78;6154006;23;20211;-83
2023/04/22 08:41:07;;;;;;;2.80;1.52;;;;;;;19.19;39.66;94961.25;6106541;23;20179;-82
2023/04/22 08:44:02;;;;;;;1.45;1.35;;;;;;;19.31;41.18;94952.63;6106121;23;20209;-83
2023/04/22 08:47:31;;;;;;;;;;;;;;;;;;;;;
2023/04/22 08:50:43;;;;;;;2.25;1.40;;;;;;;19.91;39.78;94966.06;6135227;23;20238;-82
2023/04/22 08:59:54;;;;;;;4.53;2.25;;;;;;;20.47;40.97;94963.19;6094909;23;20155;-83
2023/04/22 09:02:20;;;;;;;2.75;1.73;;;;;;;20.36;41.82;94962.06;6047099;23;20160;-84
2023/04/22 09:04:47;;;;;;;2.55;1.63;;;;;;;20.29;41.91;94960.53;6069463;23;20331;-83
2023/04/22 09:07:21;;;;;;;3.00;1.80;;;;;;;20.22;41.15;94951.91;6046271;23;20192;-85
2023/04/22 09:09:47;;;;;;;1.88;1.50;;;;;;;20.10;42.54;94951.84;6046796;23;20271;-83
2023/04/22 09:12:12;;;;;;;1.65;1.55;;;;;;;20.52;43.28;94960.69;6046988;23;20239;-83
2023/04/22 09:14:38;;;;;;;2.38;1.48;;;;;;;20.49;42.35;94955.03;6071040;23;20639;-83
2023/04/22 09:17:03;;;;;;;3.50;1.70;;;;;;;20.22;41.69;94950.06;6070244;23;20187;-81
2023/04/22 09:19:28;;;;;;;9.00;3.30;;;;;;;20.58;42.79;94953.69;6068486;23;20523;-82
2023/04/22 09:21:57;;;;;;;4.45;2.10;;;;;;;20.57;41.61;94946.81;6044129;23;20172;-82
2023/04/22 09:24:22;;;;;;;7.35;2.85;;;;;;;20.55;41.05;94951.53;6045153;23;20230;-82
2023/04/22 09:26:48;;;;;;;2.25;1.70;;;;;;;20.49;42.14;94937.38;6092762;23;20161;-81
2023/04/22 09:29:14;;;;;;;5.50;2.50;;;;;;;20.74;42.20;94949.63;6080680;23;20234;-81
2023/04/22 09:31:40;;;;;;;2.88;2.08;;;;;;;20.88;41.83;94946.59;6104404;23;20209;-80
2023/04/22 09:34:06;;;;;;;2.30;1.92;;;;;;;20.51;42.00;94948.53;6105318;23;20159;-79
2023/04/22 09:36:37;;;;;;;4.22;2.30;;;;;;;20.63;41.66;94940.66;6128402;23;20183;-80
2023/04/22 09:39:05;;;;;;;4.20;2.22;;;;;;;20.54;42.10;94939.38;6130664;23;20163;-81
2023/04/22 09:41:33;;;;;;;2.67;2.00;;;;;;;20.75;41.95;94938.84;6129622;23;20155;-81
2023/04/22 09:44:00;;;;;;;4.10;1.98;;;;;;;20.75;40.92;94944.13;6127860;23;20637;-83
2023/04/22 09:46:26;;;;;;;3.05;2.13;;;;;;;20.67;41.22;94941.00;6128770;23;20163;-79
2023/04/22 09:48:54;;;;;;;2.58;2.13;;;;;;;20.85;41.26;94936.50;6130132;23;20183;-80
2023/04/22 09:51:20;;;;;;;4.47;2.00;;;;;;;20.90;41.47;94933.16;6129577;23;20257;-80
2023/04/22 09:53:59;;;;;;;2.90;2.13;;;;;;;21.17;40.73;94928.25;6129149;23;20167;-81
2023/04/22 09:56:49;;;;;;;2.67;2.03;;;;;;;21.25;39.11;94938.50;6128665;23;20143;-80
2023/04/22 09:59:25;;;;;;;3.70;1.42;;;;;;;21.33;37.58;94926.81;6130474;23;20166;-80
2023/04/22 10:01:52;;;;;;;3.63;1.70;;;;;;;21.27;37.36;94930.38;6135899;23;20151;-83
2023/04/22 10:04:20;;;;;;;3.58;1.63;;;;;;;21.23;37.05;94931.84;6133334;23;20506;-83
2023/04/22 10:06:46;;;;;;;5.35;1.83;;;;;;;21.23;38.01;94927.34;6133663;23;20190;-83
2023/04/22 10:09:12;;;;;;;2.63;1.88;;;;;;;20.79;38.38;94929.47;6108612;23;20162;-82
2023/04/22 10:11:39;;;;;;;3.00;1.60;;;;;;;20.70;38.96;94924.75;6109163;23;20216;-83
2023/04/22 10:14:04;;;;;;;5.13;1.50;;;;;;;20.74;39.60;94931.16;6135517;23;20466;-83
2023/04/22 10:16:31;;;;;;;2.15;1.95;;;;;;;21.04;38.71;94931.13;6109454;23;20155;-84
2023/04/22 10:18:58;;;;;;;1.88;1.65;;;;;;;21.04;37.61;94929.28;6132673;23;20179;-83
2023/04/22 10:21:24;;;;;;;3.17;1.80;;;;;;;21.36;37.43;94931.63;6131545;23;20155;-83
2023/04/22 10:27:11;;;;;;;3.95;1.73;;;;;;;21.51;38.14;94913.50;6156682;23;20698;-83
2023/04/22 10:29:38;;;;;;;3.00;2.72;;;;;;;21.29;36.52;94925.66;6130999;23;20272;-84
2023/04/22 10:32:16;;;;;;;4.40;1.80;;;;;;;21.55;35.00;94916.47;6105376;23;20247;-84
2023/04/22 10:34:42;;;;;;;4.65;2.45;;;;;;;21.54;35.94;94923.59;6154709;23;20605;-83
2023/04/22 10:37:10;;;;;;;4.85;2.95;;;;;;;21.74;34.22;94923.25;6128026;23;20190;-78
2023/04/22 10:39:35;;;;;;;3.72;1.92;;;;;;;21.89;36.50;94906.88;6153987;23;20156;-79
2023/04/22 10:42:12;;;;;;;2.53;2.33;;;;;;;21.48;37.85;94917.41;6127872;23;20163;-80
2023/04/22 10:44:50;;;;;;;11.02;7.25;;;;;;;22.21;38.98;94920.53;6103183;23;20185;-79
2023/04/22 10:47:33;;;;;;;5.90;3.05;;;;;;;22.00;36.90;94917.47;6127152;23;20170;-80
2023/04/22 10:50:22;;;;;;;2.85;2.15;;;;;;;22.31;36.28;94913.59;6127305;23;20534;-79
2023/04/22 10:52:55;;;;;;;3.95;2.55;;;;;;;21.84;38.03;94926.09;6128008;23;20159;-80
2023/04/22 10:55:21;;;;;;;4.60;3.55;;;;;;;22.05;39.27;94941.34;6153627;23;20177;-78
2023/04/22 10:57:48;;;;;;;2.10;1.90;;;;;;;22.22;37.78;94932.69;6126997;23;20230;-80
2023/04/22 11:00:30;;;;;;;2.47;2.08;;;;;;;22.48;37.02;94941.94;6127706;23;20513;-80
2023/04/22 11:03:04;;;;;;;2.28;2.08;;;;;;;22.55;37.23;94937.31;6102317;23;20167;-80
2023/04/22 11:05:31;;;;;;;4.30;2.20;;;;;;;22.52;36.55;94938.56;6153485;23;20151;-80
2023/04/22 11:08:03;;;;;;;4.15;2.33;;;;;;;22.28;34.76;94940.50;6102151;23;20659;-79
2023/04/22 11:10:39;;;;;;;2.80;1.73;;;;;;;22.50;35.10;94938.00;6104386;23;20208;-80
2023/04/22 11:13:06;;;;;;;26.40;3.75;;;;;;;22.28;34.69;94942.34;6157763;23;20147;-79
2023/04/22 11:15:31;;;;;;;3.92;2.47;;;;;;;21.98;32.57;94939.84;6127715;23;20233;-80
2023/04/22 11:17:57;;;;;;;2.42;1.52;;;;;;;21.97;32.91;94940.88;6126913;23;20186;-81
2023/04/22 11:20:22;;;;;;;3.05;1.60;;;;;;;21.73;32.64;94938.31;6127155;23;20159;-81
2023/04/22 11:22:50;;;;;;;5.55;2.15;;;;;;;22.05;32.89;94943.19;6127518;23;20558;-81
2023/04/22 11:25:16;;;;;;;2.97;2.10;;;;;;;21.76;32.89;94945.75;6127497;23;20537;-80
2023/04/22 11:27:42;;;;;;;2.22;1.80;;;;;;;21.78;33.23;94937.59;6126828;23;20179;-81
2023/04/22 11:30:16;;;;;;;3.42;2.00;;;;;;;22.01;31.86;94937.56;6127616;23;20180;-81
2023/04/22 11:32:43;;;;;;;3.72;2.17;;;;;;;22.27;33.63;94930.97;6102583;23;20639;-81
2023/04/22 11:35:11;;;;;;;2.85;2.10;;;;;;;22.17;32.77;94927.31;6126972;23;20181;-79
2023/04/22 11:37:54;;;;;;;2.40;1.50;;;;;;;22.53;32.47;94939.41;6101887;23;20195;-81
2023/04/22 11:40:31;;;;;;;3.08;1.65;;;;;;;22.95;30.79;94934.59;6102705;23;20154;-81
2023/04/22 11:42:57;;;;;;;2.75;2.13;;;;;;;22.65;32.09;94937.50;6102669;23;20151;-81
2023/04/22 11:45:24;;;;;;;4.00;3.17;;;;;;;22.59;35.01;94946.38;6102438;23;20160;-80
2023/04/22 11:47:50;;;;;;;6.03;4.30;;;;;;;22.09;38.49;94943.56;6127430;23;20255;-80
2023/04/22 11:50:16;;;;;;;4.18;2.33;;;;;;;22.08;37.22;94945.38;6127835;23;20561;-80
2023/04/22 11:52:51;;;;;;;3.35;2.22;;;;;;;21.54;36.75;94942.09;6102613;23;20168;-80
2023/04/22 11:55:21;;;;;;;5.97;3.00;;;;;;;21.25;39.40;94954.34;6151662;23;20183;-80
2023/04/22 11:57:57;;;;;;;3.67;2.40;;;;;;;21.44;39.12;94958.50;6126531;23;20233;-80
2023/04/22 12:00:28;;;;;;;2.60;2.15;;;;;;;21.31;38.68;94950.03;6126959;23;20151;-80
2023/04/22 12:03:01;;;;;;;6.68;3.20;;;;;;;21.36;40.19;94950.91;6126819;23;20482;-79
2023/04/22 12:05:33;;;;;;;5.90;2.70;;;;;;;21.25;39.34;94959.63;6101895;23;20167;-79
2023/04/22 12:08:03;;;;;;;4.75;2.72;;;;;;;21.14;39.00;94958.56;6126127;23;20729;-80
2023/04/22 12:10:28;;;;;;;3.20;2.90;;;;;;;21.09;39.65;94950.50;6126314;23;20167;-81
2023/04/22 12:12:54;;;;;;;7.65;2.40;;;;;;;20.85;39.05;94951.53;6100852;23;20152;-78
2023/04/22 12:15:20;;;;;;;2.65;2.10;;;;;;;21.08;38.72;94954.19;6126866;23;20175;-78
2023/04/22 12:17:45;;;;;;;5.05;2.45;;;;;;;21.24;38.69;94949.28;6125775;23;20178;-78
2023/04/22 12:27:39;;;;;;;;;;;;;;;;;;;;;
2023/04/22 12:30:36;;;;;;;2.90;2.30;;;;;;;20.83;37.15;94953.56;5967802;24;20256;-82
2023/04/22 12:33:15;;;;;;;3.60;2.28;;;;;;;20.72;38.05;94959.59;5894840;24;20173;-84
2023/04/22 12:36:25;;;;;;;;;;;;;;;;;;;;;
2023/04/22 12:39:53;;;;;;;;;;;;;;;;;;;;;
2023/04/22 12:42:45;;;;;;;2.60;2.30;;;;;;;21.05;34.39;94959.13;5951389;24;20673;-81
2023/04/22 12:46:11;;;;;;;3.92;2.80;;;;;;;21.13;35.69;94964.88;5952534;24;20333;-84
2023/04/22 12:49:31;;;;;;;4.85;2.35;;;;;;;21.16;35.40;94960.97;5896112;24;20194;-83
2023/04/22 12:55:44;;;;;;;3.40;2.65;;;;;;;21.55;34.85;94948.97;5880218;24;20889;-83
2023/04/22 12:58:26;;;;;;;3.20;2.08;;;;;;;21.73;34.43;94945.41;5891480;24;20302;-84
2023/04/22 13:00:52;;;;;;;4.43;2.75;;;;;;;21.73;35.26;94948.03;5832298;24;20210;-80
2023/04/22 13:03:17;;;;;;;8.48;6.43;;;;;;;21.58;36.98;94948.53;5900778;24;20168;-83
2023/04/22 13:05:44;;;;;;;9.65;7.78;;;;;;;21.59;36.76;94958.06;5957163;24;20707;-83
2023/04/22 13:08:49;;;;;;;6.13;4.90;;;;;;;21.19;34.04;94949.94;5982919;23;20266;-84
2023/04/22 13:14:52;;;;;;;2.90;2.03;;;;;;;21.20;34.43;94954.19;6048587;23;20184;-85
2023/04/22 13:23:56;;;;;;;3.40;2.25;;;;;;;22.00;32.86;94948.38;6038417;23;20672;-85
2023/04/22 13:26:21;;;;;;;4.35;2.15;;;;;;;22.25;34.12;94954.19;6070547;23;20187;-80
2023/04/22 13:28:46;;;;;;;2.67;1.60;;;;;;;22.12;31.29;94948.38;6104208;23;20247;-85
2023/04/22 13:31:12;;;;;;;5.18;2.10;;;;;;;22.43;34.47;94944.47;6104281;23;20160;-84
2023/04/22 13:33:41;;;;;;;3.70;2.20;;;;;;;22.42;33.47;94938.38;6104635;23;20579;-83
2023/04/22 13:36:08;;;;;;;3.88;2.08;;;;;;;22.01;32.29;94932.28;6104326;23;20255;-84
2023/04/22 13:38:34;;;;;;;6.65;2.72;;;;;;;22.06;32.92;94935.00;6105720;23;20218;-85
2023/04/22 13:41:02;;;;;;;2.90;1.65;;;;;;;22.04;33.73;94931.00;6130665;23;20641;-84
2023/04/22 13:43:27;;;;;;;3.55;1.90;;;;;;;21.57;34.08;94933.72;6129177;23;20160;-85
2023/04/22 13:45:52;;;;;;;5.00;1.75;;;;;;;21.44;33.45;94923.38;6104174;23;20664;-83
2023/04/22 13:48:18;;;;;;;4.82;2.72;;;;;;;21.68;34.30;94935.53;6103716;23;20189;-83
2023/04/22 13:50:43;;;;;;;3.67;1.92;;;;;;;21.38;33.72;94926.91;6129424;23;20191;-84
2023/04/22 13:53:10;;;;;;;3.92;1.90;;;;;;;20.89;34.64;94921.78;6104442;23;20255;-85
2023/04/22 13:55:36;;;;;;;3.17;2.05;;;;;;;20.98;34.95;94919.63;6105338;23;20199;-82
2023/04/22 13:58:04;;;;;;;4.10;1.60;;;;;;;20.47;35.12;94918.34;6103060;23;20266;-84
2023/04/22 14:00:29;;;;;;;2.22;1.70;;;;;;;20.35;36.16;94914.84;6135661;23;20159;-85
2023/04/22 14:02:55;;;;;;;4.35;2.05;;;;;;;19.88;36.85;94914.63;6136769;23;20180;-85
2023/04/22 14:05:21;;;;;;;4.72;2.25;;;;;;;19.71;36.79;94917.03;6137660;23;20159;-82
2023/04/22 14:07:46;;;;;;;3.72;1.95;;;;;;;19.41;36.66;94910.81;6111660;23;20190;-85
2023/04/22 14:10:12;;;;;;;5.05;1.98;;;;;;;19.36;37.42;94921.22;6136992;23;20648;-84
2023/04/22 14:12:50;;;;;;;6.55;2.15;;;;;;;19.71;37.74;94921.50;6134265;23;20151;-79
2023/04/22 14:15:16;;;;;;;3.50;1.77;;;;;;;20.04;37.24;94911.38;6108979;23;20201;-80
2023/04/22 14:17:41;;;;;;;2.42;1.77;;;;;;;20.08;36.99;94909.91;6158553;23;20649;-78
2023/04/22 14:20:09;;;;;;;5.25;2.17;;;;;;;20.03;37.23;94908.97;6133548;23;20159;-85
2023/04/22 14:22:35;;;;;;;2.50;1.85;;;;;;;19.93;37.60;94898.13;6111299;23;20156;-83
2023/04/22 14:25:00;;;;;;;11.85;6.45;;;;;;;20.00;36.65;94902.31;6157398;23;20154;-87
2023/04/22 14:27:25;;;;;;;3.92;2.05;;;;;;;19.83;37.02;94909.19;6132988;23;20189;-86
2023/04/22 14:29:52;;;;;;;1.95;1.83;;;;;;;19.82;36.87;94899.69;6159579;23;20234;-85
2023/04/22 14:32:19;;;;;;;3.65;2.00;;;;;;;19.63;37.88;94904.16;6132542;23;20499;-85
2023/04/22 14:34:44;;;;;;;2.63;2.10;;;;;;;20.10;37.67;94899.13;6105816;23;20962;-85
2023/04/22 14:37:10;;;;;;;4.65;2.08;;;;;;;19.90;37.86;94896.75;6130361;23;20179;-84
2023/04/22 14:39:36;;;;;;;6.50;2.60;;;;;;;20.04;37.80;94910.56;6156119;23;20183;-85
2023/04/22 14:42:02;;;;;;;8.07;2.90;;;;;;;19.68;38.16;94900.84;6131792;23;20156;-84
2023/04/22 14:44:30;;;;;;;5.32;2.65;;;;;;;19.60;38.73;94899.31;6131489;23;20226;-86
2023/04/22 14:46:55;;;;;;;2.75;2.00;;;;;;;19.39;38.50;94910.25;6155186;23;20450;-86
2023/04/22 14:49:20;;;;;;;4.57;4.18;;;;;;;19.47;38.90;94910.75;6105758;23;20170;-85
2023/04/22 14:51:46;;;;;;;3.08;2.00;;;;;;;19.16;39.18;94908.22;6104763;23;20163;-86
2023/04/22 14:54:11;;;;;;;3.15;2.10;;;;;;;19.21;38.68;94903.91;6130511;23;20511;-86
2023/04/22 14:56:37;;;;;;;3.65;2.40;;;;;;;19.07;40.07;94904.25;6132898;23;20151;-85
2023/04/22 14:59:02;;;;;;;2.67;1.83;;;;;;;19.06;39.10;94907.91;6164210;23;20171;-86
2023/04/22 15:01:28;;;;;;;3.70;2.17;;;;;;;19.22;38.34;94905.53;6114265;23;20163;-84
2023/04/22 15:03:53;;;;;;;2.80;2.10;;;;;;;19.21;38.97;94901.28;6113670;23;20660;-85
2023/04/22 15:06:18;;;;;;;2.78;1.80;;;;;;;19.36;38.76;94902.78;6162650;23;20151;-84
2023/04/22 15:08:44;;;;;;;4.00;3.05;;;;;;;19.32;39.59;94902.41;6138048;23;20238;-84
2023/04/22 15:11:09;;;;;;;2.22;1.88;;;;;;;19.08;38.64;94905.84;6141046;23;20181;-84
2023/04/22 15:13:35;;;;;;;12.20;10.93;;;;;;;19.01;39.05;94903.28;6109960;23;20605;-84
2023/04/22 15:16:00;;;;;;;12.80;9.57;;;;;;;18.95;38.97;94904.94;6133612;23;20191;-83
2023/04/22 15:18:27;;;;;;;2.80;1.88;;;;;;;18.78;38.43;94903.06;6108658;23;20214;-83
2023/04/22 15:20:52;;;;;;;3.95;1.70;;;;;;;18.76;38.92;94905.91;6133689;23;20552;-83
2023/04/22 15:23:21;;;;;;;3.20;2.00;;;;;;;18.75;38.99;94901.69;6129251;23;20159;-83
2023/04/22 15:25:46;;;;;;;3.00;1.83;;;;;;;18.74;39.74;94907.16;6131485;23;20140;-83
2023/04/22 15:28:12;;;;;;;2.20;1.80;;;;;;;18.73;39.34;94903.72;6106341;23;20190;-84
2023/04/22 15:30:39;;;;;;;2.03;1.77;;;;;;;18.61;38.95;94908.81;6133159;23;20183;-83
2023/04/22 15:33:04;;;;;;;2.13;1.63;;;;;;;18.74;39.34;94913.22;6109072;23;20163;-82
2023/04/22 15:35:30;;;;;;;2.10;1.98;;;;;;;18.58;39.06;94911.06;6106847;23;20179;-83
2023/04/22 15:37:57;;;;;;;2.10;1.85;;;;;;;18.55;38.96;94912.31;6107045;23;20270;-84
2023/04/22 15:40:22;;;;;;;3.08;1.80;;;;;;;18.29;39.71;94921.16;6106204;23;20163;-83
2023/04/22 15:42:47;;;;;;;3.08;1.95;;;;;;;18.37;40.06;94914.81;6130248;23;20166;-83
2023/04/22 15:45:13;;;;;;;5.30;1.90;;;;;;;18.60;40.07;94916.91;6107296;23;20163;-86
2023/04/22 15:47:39;;;;;;;3.75;1.80;;;;;;;18.56;40.23;94913.13;6161417;23;20177;-84
2023/04/22 15:50:07;;;;;;;3.10;1.60;;;;;;;18.28;39.66;94913.44;6109868;23;20159;-83
2023/04/22 15:52:33;;;;;;;3.20;2.10;;;;;;;18.47;40.22;94915.19;6131404;23;20165;-84
2023/04/22 15:55:00;;;;;;;3.95;2.47;;;;;;;18.79;39.86;94918.63;6104080;23;20211;-82
2023/04/22 15:57:25;;;;;;;3.70;3.20;;;;;;;18.83;40.02;94917.19;6130117;23;20183;-83
2023/04/22 15:59:51;;;;;;;4.20;2.30;;;;;;;18.93;39.82;94914.88;6129920;23;20242;-83
2023/04/22 16:02:16;;;;;;;7.43;2.10;;;;;;;18.98;39.43;94911.59;6105978;23;20222;-82
2023/04/22 16:04:42;;;;;;;5.90;2.47;;;;;;;19.05;39.89;94911.56;6106377;23;20164;-83
2023/04/22 16:07:09;;;;;;;4.30;2.63;;;;;;;19.23;39.70;94912.41;6105079;23;20194;-83
2023/04/22 16:09:34;;;;;;;2.70;2.28;;;;;;;19.35;39.88;94919.59;6105354;23;20160;-82
2023/04/22 16:12:00;;;;;;;4.10;2.70;;;;;;;19.36;40.16;94922.03;6131162;23;20170;-83
2023/04/22 16:14:25;;;;;;;4.32;2.40;;;;;;;19.44;39.84;94918.31;6130302;23;20528;-83
2023/04/22 16:16:51;;;;;;;2.80;2.28;;;;;;;19.41;40.11;94921.34;6156948;23;20151;-82
2023/04/22 16:19:16;;;;;;;4.07;2.20;;;;;;;19.26;39.58;94916.44;6132460;23;20218;-82
2023/04/22 16:21:41;;;;;;;4.13;2.10;;;;;;;19.14;40.22;94924.22;6131487;23;20221;-82
2023/04/22 16:24:07;;;;;;;3.08;2.60;;;;;;;19.10;41.05;94914.34;6107195;23;20527;-83
2023/04/22 16:33:15;;;;;;;5.72;2.47;;;;;;;18.86;41.50;94919.38;6043784;23;20973;-84
2023/04/22 16:35:45;;;;;;;2.63;2.17;;;;;;;18.96;41.17;94918.91;6076316;23;20181;-85
2023/04/22 16:38:31;;;;;;;4.00;2.35;;;;;;;19.02;41.38;94920.69;6053422;23;20215;-85
2023/04/22 16:40:56;;;;;;;5.40;3.00;;;;;;;18.85;42.78;94917.78;6053783;23;20188;-84
2023/04/22 16:43:26;;;;;;;3.40;2.10;;;;;;;18.91;42.30;94921.41;6078203;23;20208;-84
2023/04/22 16:45:55;;;;;;;2.05;1.85;;;;;;;18.81;41.80;94921.84;6077926;23;20595;-85
2023/04/22 16:48:23;;;;;;;2.97;2.38;;;;;;;18.77;41.38;94920.66;6100588;23;20176;-85
2023/04/22 16:50:50;;;;;;;2.92;2.50;;;;;;;18.67;42.14;94920.34;6076632;23;20651;-85
2023/04/22 16:53:15;;;;;;;3.13;2.35;;;;;;;18.74;42.48;94928.19;6078029;23;20164;-84
2023/04/22 16:55:42;;;;;;;2.85;2.47;;;;;;;18.62;43.31;94917.50;6053572;23;20224;-84
2023/04/22 16:58:14;;;;;;;5.68;2.45;;;;;;;18.65;42.40;94923.19;6052949;23;20180;-85
2023/04/22 17:00:40;;;;;;;2.70;2.38;;;;;;;18.46;42.12;94933.78;6077833;23;20161;-84
2023/04/22 17:03:06;;;;;;;4.20;2.25;;;;;;;18.35;42.98;94925.53;6078270;23;20163;-85
2023/04/22 17:05:34;;;;;;;3.80;2.38;;;;;;;18.20;42.56;94929.47;6055772;23;20559;-85
2023/04/22 17:07:59;;;;;;;4.47;2.88;;;;;;;18.09;43.52;94923.84;6137386;23;20518;-84
2023/04/22 17:10:27;;;;;;;6.78;2.90;;;;;;;17.98;43.24;94939.47;6113252;23;20170;-84
2023/04/22 17:12:55;;;;;;;3.05;2.20;;;;;;;17.81;43.93;94932.03;6137121;23;20187;-85
2023/04/22 17:15:23;;;;;;;5.60;2.60;;;;;;;17.70;43.68;94937.94;6113988;23;20187;-83
2023/04/22 17:17:49;;;;;;;6.03;3.00;;;;;;;17.61;44.39;94947.03;6137683;23;20243;-84
2023/04/22 17:20:14;;;;;;;5.35;3.95;;;;;;;17.48;45.48;94942.59;6138246;23;20252;-83
2023/04/22 17:22:40;;;;;;;4.63;2.50;;;;;;;17.41;46.21;94943.63;6164765;23;20152;-84
2023/04/22 17:25:06;;;;;;;3.72;2.28;;;;;;;17.40;45.90;94949.88;6137791;23;20163;-84
2023/04/22 17:27:32;;;;;;;5.93;2.35;;;;;;;17.26;46.32;94946.47;6136130;23;20633;-85
2023/04/22 17:29:57;;;;;;;8.25;6.07;;;;;;;17.19;46.03;94950.91;6113816;23;20242;-85
2023/04/22 17:32:22;;;;;;;19.88;16.45;;;;;;;17.16;46.38;94960.00;6108853;23;20163;-78
2023/04/22 17:34:52;;;;;;;7.85;4.43;;;;;;;17.01;45.87;94950.72;6104517;23;20186;-83
2023/04/22 17:37:43;;;;;;;5.80;3.58;;;;;;;16.95;46.36;94957.56;6127841;23;20607;-78
2023/04/22 17:40:10;;;;;;;7.80;3.95;;;;;;;16.82;46.62;94957.56;6039320;23;20252;-79
2023/04/22 17:42:35;;;;;;;6.70;4.40;;;;;;;16.81;47.74;94958.56;6070837;23;20161;-82
2023/04/22 17:45:01;;;;;;;9.63;8.45;;;;;;;16.51;47.93;94961.50;6071630;23;20647;-83
2023/04/22 17:47:26;;;;;;;8.63;7.20;;;;;;;16.21;49.14;94971.50;6022876;23;20251;-83
2023/04/22 17:49:51;;;;;;;7.25;5.30;;;;;;;16.27;50.41;94975.16;6069286;23;20506;-82
2023/04/22 17:52:17;;;;;;;6.45;3.90;;;;;;;16.22;50.96;94967.06;6070625;23;20589;-82
2023/04/22 17:54:42;;;;;;;2.95;1.90;;;;;;;16.02;53.11;94967.81;6071531;23;20196;-83
2023/04/22 17:57:09;;;;;;;4.55;2.35;;;;;;;15.85;54.03;94972.56;6070125;23;20185;-83
2023/04/22 17:59:34;;;;;;;6.53;2.20;;;;;;;15.78;54.08;94974.31;6069789;23;20168;-83
2023/04/22 18:02:00;;;;;;;3.58;2.22;;;;;;;15.64;55.71;94984.94;6022995;23;20169;-83
2023/04/22 18:22:35;;;;;;;3.30;2.30;;;;;;;14.56;67.00;95006.91;6093384;23;20212;-86
2023/04/22 18:25:00;;;;;;;4.40;2.67;;;;;;;14.48;67.62;95005.22;6074140;23;20169;-85
2023/04/22 18:27:27;;;;;;;5.77;2.80;;;;;;;14.36;68.69;95001.44;6074641;23;20183;-85
2023/04/22 18:29:54;;;;;;;4.73;2.27;;;;;;;14.16;68.52;95014.28;6096337;23;20611;-85
2023/04/22 18:32:20;;;;;;;4.50;3.00;;;;;;;13.93;69.87;95018.78;6094351;23;20167;-85
2023/04/22 18:34:45;;;;;;;4.63;3.03;;;;;;;13.87;70.56;95013.31;6095776;23;20244;-84
2023/04/22 18:37:20;;;;;;;5.50;3.10;;;;;;;13.84;71.60;95010.25;6047200;23;20188;-85
2023/04/22 18:39:46;;;;;;;7.57;4.30;;;;;;;13.81;70.88;95010.63;6071966;23;20209;-85
2023/04/22 18:42:14;;;;;;;4.87;3.60;;;;;;;13.89;71.07;95016.56;6094440;23;20164;-83
2023/04/22 18:44:40;;;;;;;3.10;2.40;;;;;;;13.60;71.73;95021.75;6072679;23;20168;-85
2023/04/22 18:47:06;;;;;;;3.60;3.30;;;;;;;13.67;71.57;95016.63;6070853;23;20180;-85
2023/04/22 18:49:33;;;;;;;4.60;2.40;;;;;;;13.74;70.61;95017.53;6071047;23;20157;-86
2023/04/22 18:52:01;;;;;;;4.57;2.53;;;;;;;13.66;71.15;95022.84;6044843;23;20173;-85
2023/04/22 18:54:27;;;;;;;5.83;2.40;;;;;;;13.52;70.65;95011.44;6047648;23;20249;-84
2023/04/22 18:56:53;;;;;;;4.13;2.70;;;;;;;13.50;70.94;95010.78;6119814;23;20172;-85
2023/04/22 18:59:18;;;;;;;2.93;2.67;;;;;;;13.73;70.83;95011.50;6124794;23;20219;-85
2023/04/22 19:01:43;;;;;;;3.20;2.30;;;;;;;13.70;70.71;95008.47;6078382;23;20198;-83
2023/04/22 19:04:09;;;;;;;6.47;2.77;;;;;;;13.70;71.54;95011.06;6101582;23;20195;-85
2023/04/22 19:06:35;;;;;;;5.50;2.63;;;;;;;13.62;71.71;95004.13;6077707;23;20159;-84
2023/04/22 19:09:01;;;;;;;4.03;2.80;;;;;;;13.59;71.36;95000.06;6102984;23;20210;-84
2023/04/22 19:11:26;;;;;;;4.20;2.50;;;;;;;13.65;71.74;94997.75;6103053;23;20159;-84
2023/04/22 19:13:51;;;;;;;2.80;2.50;;;;;;;13.76;71.35;94995.50;6078512;23;20192;-84
2023/04/22 19:16:17;;;;;;;2.93;2.00;;;;;;;13.73;71.46;95005.50;6101313;23;20179;-83
2023/04/22 19:18:43;;;;;;;3.43;2.33;;;;;;;13.75;71.81;95000.88;6101447;23;20230;-85
2023/04/22 19:21:09;;;;;;;4.00;2.70;;;;;;;13.67;72.26;95000.97;6101855;23;20153;-85
2023/04/22 19:23:35;;;;;;;2.90;2.60;;;;;;;13.41;74.19;95001.41;6101718;23;20239;-84
2023/04/22 19:26:01;;;;;;;3.77;2.90;;;;;;;13.39;74.41;94998.97;6099596;23;20156;-84
2023/04/22 19:28:26;;;;;;;4.00;2.43;;;;;;;13.30;75.37;95005.25;6100911;23;20681;-83
2023/04/22 19:30:52;;;;;;;4.50;2.60;;;;;;;13.11;76.48;95000.53;6123665;23;20191;-83
2023/04/22 19:33:17;;;;;;;5.00;2.83;;;;;;;13.15;76.46;95004.38;6074592;23;20186;-83
2023/04/22 19:35:43;;;;;;;4.37;2.90;;;;;;;13.27;76.42;95011.66;6074594;23;20191;-84
2023/04/22 19:38:09;;;;;;;3.00;2.40;;;;;;;13.32;75.91;95013.72;6099013;23;20175;-83
2023/04/22 19:40:34;;;;;;;4.27;2.43;;;;;;;13.28;76.25;95013.28;6076029;23;20168;-83
2023/04/22 19:43:00;;;;;;;4.27;2.77;;;;;;;13.23;76.38;95015.59;6099459;23;20641;-80
2023/04/22 19:45:25;;;;;;;3.37;2.40;;;;;;;13.10;75.93;95012.75;6123640;23;20610;-83
2023/04/22 19:47:51;;;;;;;4.20;2.80;;;;;;;13.15;75.02;95018.22;6098160;23;20183;-83
2023/04/22 19:50:17;;;;;;;3.60;2.63;;;;;;;13.13;74.75;95016.78;6098324;23;20246;-83
2023/04/22 19:52:44;;;;;;;3.70;3.17;;;;;;;13.14;74.42;95010.59;6101590;23;20862;-84
2023/04/22 19:55:10;;;;;;;3.27;2.40;;;;;;;13.06;74.45;95008.84;6101496;23;20260;-84